Terminal Aerodrome Forecast
Issued by NWS Cleveland, OH

Home | Current Version | Previous Version | Text Only | Print | Product List | Glossary On
Versions: 1 2 3 4 5 6 7 8 9 10 11 12 13 14 15 16 17
000
FTUS41 KCLE 230857 AAA
TAFYNG
TAF AMD
KYNG 230857Z 2309/2406 21006KT P6SM BKN015
      TEMPO 2309/2310 SCT015 BKN100
     FM231100 20010KT P6SM VCSH BKN015 OVC025
      TEMPO 2312/2314 5SM -SHRA OVC008
     FM231700 22012G22KT 5SM -SHRA BR VCTS OVC015CB
      TEMPO 2317/2320 24012KT 1SM TSRA OVC005CB
     FM232200 24010KT 5SM -SHRA OVC018
     FM240100 25007KT P6SM OVC018=

USA.gov is the U.S. government's official web portal to all federal, state and local government web resources and services.